sensor_id;sensor_type;location;lat;lon;timestamp;P1;durP1;ratioP1;P2;durP2;ratioP2
20411;SDS011;10365;52.578;8.138;2022-08-11T00:00:17;5.10;;;2.70;;
20411;SDS011;10365;52.578;8.138;2022-08-11T00:02:45;5.43;;;2.70;;
20411;SDS011;10365;52.578;8.138;2022-08-11T00:05:12;5.30;;;2.30;;
20411;SDS011;10365;52.578;8.138;2022-08-11T00:07:42;6.15;;;3.80;;
20411;SDS011;10365;52.578;8.138;2022-08-11T00:10:09;6.60;;;3.08;;
20411;SDS011;10365;52.578;8.138;2022-08-11T00:12:36;4.55;;;2.50;;
20411;SDS011;10365;52.578;8.138;2022-08-11T00:15:02;5.10;;;3.90;;
20411;SDS011;10365;52.578;8.138;2022-08-11T00:17:30;6.10;;;3.15;;
20411;SDS011;10365;52.578;8.138;2022-08-11T00:20:06;7.15;;;3.17;;
20411;SDS011;10365;52.578;8.138;2022-08-11T00:22:34;4.32;;;2.65;;
20411;SDS011;10365;52.578;8.138;2022-08-11T00:25:00;5.45;;;2.80;;
20411;SDS011;10365;52.578;8.138;2022-08-11T00:27:32;5.53;;;2.83;;
20411;SDS011;10365;52.578;8.138;2022-08-11T00:29:58;5.03;;;2.28;;
20411;SDS011;10365;52.578;8.138;2022-08-11T00:32:23;5.72;;;2.72;;
20411;SDS011;10365;52.578;8.138;2022-08-11T00:34:49;3.35;;;2.35;;
20411;SDS011;10365;52.578;8.138;2022-08-11T00:37:18;3.65;;;2.15;;
20411;SDS011;10365;52.578;8.138;2022-08-11T00:39:45;3.10;;;2.30;;
20411;SDS011;10365;52.578;8.138;2022-08-11T01:00:17;7.38;;;2.78;;
20411;SDS011;10365;52.578;8.138;2022-08-11T01:10:48;5.30;;;3.13;;
20411;SDS011;10365;52.578;8.138;2022-08-11T01:13:29;5.93;;;3.53;;
20411;SDS011;10365;52.578;8.138;2022-08-11T01:37:01;5.18;;;3.97;;
20411;SDS011;10365;52.578;8.138;2022-08-11T01:45:15;6.60;;;4.55;;
20411;SDS011;10365;52.578;8.138;2022-08-11T01:52:54;5.30;;;4.40;;
20411;SDS011;10365;52.578;8.138;2022-08-11T01:55:36;10.10;;;5.88;;
20411;SDS011;10365;52.578;8.138;2022-08-11T01:58:26;5.55;;;4.80;;
20411;SDS011;10365;52.578;8.138;2022-08-11T02:00:53;6.97;;;4.72;;
20411;SDS011;10365;52.578;8.138;2022-08-11T02:03:24;7.55;;;4.97;;
20411;SDS011;10365;52.578;8.138;2022-08-11T02:11:44;13.63;;;6.10;;
20411;SDS011;10365;52.578;8.138;2022-08-11T02:14:06;11.38;;;5.63;;
20411;SDS011;10365;52.578;8.138;2022-08-11T02:19:07;8.40;;;6.43;;
20411;SDS011;10365;52.578;8.138;2022-08-11T02:27:24;8.57;;;5.70;;
20411;SDS011;10365;52.578;8.138;2022-08-11T02:32:22;9.65;;;6.00;;
20411;SDS011;10365;52.578;8.138;2022-08-11T02:43:06;8.52;;;5.47;;
20411;SDS011;10365;52.578;8.138;2022-08-11T02:48:45;6.72;;;4.85;;
20411;SDS011;10365;52.578;8.138;2022-08-11T02:51:34;6.72;;;4.90;;
20411;SDS011;10365;52.578;8.138;2022-08-11T02:54:06;4.57;;;3.88;;
20411;SDS011;10365;52.578;8.138;2022-08-11T02:56:50;7.40;;;4.03;;
20411;SDS011;10365;52.578;8.138;2022-08-11T03:02:59;5.47;;;3.72;;
20411;SDS011;10365;52.578;8.138;2022-08-11T03:05:14;8.38;;;4.70;;
20411;SDS011;10365;52.578;8.138;2022-08-11T03:10:12;11.80;;;4.68;;
20411;SDS011;10365;52.578;8.138;2022-08-11T03:12:44;8.85;;;4.93;;
20411;SDS011;10365;52.578;8.138;2022-08-11T03:15:31;7.22;;;4.25;;
20411;SDS011;10365;52.578;8.138;2022-08-11T03:26:25;10.75;;;4.38;;
20411;SDS011;10365;52.578;8.138;2022-08-11T03:29:07;9.65;;;5.03;;
20411;SDS011;10365;52.578;8.138;2022-08-11T03:31:45;9.18;;;4.85;;
20411;SDS011;10365;52.578;8.138;2022-08-11T03:34:19;8.75;;;4.75;;
20411;SDS011;10365;52.578;8.138;2022-08-11T03:41:41;8.02;;;5.03;;
20411;SDS011;10365;52.578;8.138;2022-08-11T03:44:22;6.47;;;4.68;;
20411;SDS011;10365;52.578;8.138;2022-08-11T03:51:51;18.70;;;6.30;;
20411;SDS011;10365;52.578;8.138;2022-08-11T03:54:31;11.23;;;6.20;;
20411;SDS011;10365;52.578;8.138;2022-08-11T04:04:57;10.15;;;6.00;;
20411;SDS011;10365;52.578;8.138;2022-08-11T04:56:13;11.88;;;6.18;;
20411;SDS011;10365;52.578;8.138;2022-08-11T04:59:22;12.30;;;6.63;;
20411;SDS011;10365;52.578;8.138;2022-08-11T05:12:47;10.23;;;4.43;;
20411;SDS011;10365;52.578;8.138;2022-08-11T05:15:15;8.00;;;3.70;;
20411;SDS011;10365;52.578;8.138;2022-08-11T05:18:20;9.07;;;4.00;;
20411;SDS011;10365;52.578;8.138;2022-08-11T05:21:06;12.77;;;4.07;;
20411;SDS011;10365;52.578;8.138;2022-08-11T05:27:03;6.97;;;3.60;;
20411;SDS011;10365;52.578;8.138;2022-08-11T05:30:02;8.05;;;3.88;;
20411;SDS011;10365;52.578;8.138;2022-08-11T05:32:53;12.93;;;3.90;;
20411;SDS011;10365;52.578;8.138;2022-08-11T05:35:46;9.93;;;4.78;;
20411;SDS011;10365;52.578;8.138;2022-08-11T05:38:21;8.88;;;4.60;;
20411;SDS011;10365;52.578;8.138;2022-08-11T05:41:07;17.70;;;5.53;;
20411;SDS011;10365;52.578;8.138;2022-08-11T05:43:54;18.77;;;4.78;;
20411;SDS011;10365;52.578;8.138;2022-08-11T05:46:40;10.50;;;3.88;;
20411;SDS011;10365;52.578;8.138;2022-08-11T05:49:28;9.93;;;3.80;;
20411;SDS011;10365;52.578;8.138;2022-08-11T05:52:13;7.47;;;3.40;;
20411;SDS011;10365;52.578;8.138;2022-08-11T05:55:02;11.73;;;4.53;;
20411;SDS011;10365;52.578;8.138;2022-08-11T05:57:47;10.25;;;6.18;;
20411;SDS011;10365;52.578;8.138;2022-08-11T06:00:14;13.57;;;7.22;;
20411;SDS011;10365;52.578;8.138;2022-08-11T06:02:43;12.27;;;6.30;;
20411;SDS011;10365;52.578;8.138;2022-08-11T06:05:11;17.13;;;6.25;;
20411;SDS011;10365;52.578;8.138;2022-08-11T06:07:36;21.65;;;8.43;;
20411;SDS011;10365;52.578;8.138;2022-08-11T06:10:03;13.32;;;6.25;;
20411;SDS011;10365;52.578;8.138;2022-08-11T06:12:30;11.40;;;5.32;;
20411;SDS011;10365;52.578;8.138;2022-08-11T06:15:01;12.95;;;5.45;;
20411;SDS011;10365;52.578;8.138;2022-08-11T06:17:30;10.35;;;5.07;;
20411;SDS011;10365;52.578;8.138;2022-08-11T06:20:04;9.68;;;4.97;;
20411;SDS011;10365;52.578;8.138;2022-08-11T06:22:31;17.48;;;4.15;;
20411;SDS011;10365;52.578;8.138;2022-08-11T06:24:57;15.07;;;4.40;;
20411;SDS011;10365;52.578;8.138;2022-08-11T06:27:24;10.80;;;3.30;;
20411;SDS011;10365;52.578;8.138;2022-08-11T06:29:53;15.30;;;3.50;;
20411;SDS011;10365;52.578;8.138;2022-08-11T06:32:20;8.38;;;2.85;;
20411;SDS011;10365;52.578;8.138;2022-08-11T06:42:31;15.57;;;2.25;;
20411;SDS011;10365;52.578;8.138;2022-08-11T06:45:07;11.95;;;2.75;;
20411;SDS011;10365;52.578;8.138;2022-08-11T06:47:36;6.97;;;2.28;;
20411;SDS011;10365;52.578;8.138;2022-08-11T06:50:06;8.20;;;2.30;;
20411;SDS011;10365;52.578;8.138;2022-08-11T06:52:51;5.03;;;2.08;;
20411;SDS011;10365;52.578;8.138;2022-08-11T06:55:24;6.07;;;1.67;;
20411;SDS011;10365;52.578;8.138;2022-08-11T06:58:16;11.27;;;2.13;;
20411;SDS011;10365;52.578;8.138;2022-08-11T07:01:03;7.10;;;2.03;;
20411;SDS011;10365;52.578;8.138;2022-08-11T07:03:31;10.25;;;1.60;;
20411;SDS011;10365;52.578;8.138;2022-08-11T07:06:07;5.07;;;1.48;;
20411;SDS011;10365;52.578;8.138;2022-08-11T07:14:32;5.70;;;1.52;;
20411;SDS011;10365;52.578;8.138;2022-08-11T07:17:21;3.92;;;1.35;;
20411;SDS011;10365;52.578;8.138;2022-08-11T07:19:49;3.58;;;1.10;;
20411;SDS011;10365;52.578;8.138;2022-08-11T07:22:34;6.47;;;1.27;;
20411;SDS011;10365;52.578;8.138;2022-08-11T07:25:18;5.60;;;1.50;;
20411;SDS011;10365;52.578;8.138;2022-08-11T07:28:11;11.15;;;2.17;;
20411;SDS011;10365;52.578;8.138;2022-08-11T07:30:57;11.95;;;1.48;;
20411;SDS011;10365;52.578;8.138;2022-08-11T07:33:27;5.10;;;1.33;;
20411;SDS011;10365;52.578;8.138;2022-08-11T07:35:55;7.22;;;1.30;;
20411;SDS011;10365;52.578;8.138;2022-08-11T07:38:23;7.00;;;1.95;;
20411;SDS011;10365;52.578;8.138;2022-08-11T07:41:17;6.18;;;1.40;;
20411;SDS011;10365;52.578;8.138;2022-08-11T07:43:44;11.20;;;1.65;;
20411;SDS011;10365;52.578;8.138;2022-08-11T07:46:13;11.82;;;1.13;;
20411;SDS011;10365;52.578;8.138;2022-08-11T07:48:57;10.57;;;1.77;;
20411;SDS011;10365;52.578;8.138;2022-08-11T07:51:42;3.70;;;1.00;;
20411;SDS011;10365;52.578;8.138;2022-08-11T07:54:27;11.95;;;1.38;;
20411;SDS011;10365;52.578;8.138;2022-08-11T07:56:53;3.47;;;1.30;;
20411;SDS011;10365;52.578;8.138;2022-08-11T07:59:18;9.27;;;1.20;;
20411;SDS011;10365;52.578;8.138;2022-08-11T08:02:03;8.55;;;2.08;;
20411;SDS011;10365;52.578;8.138;2022-08-11T08:04:48;6.03;;;1.40;;
20411;SDS011;10365;52.578;8.138;2022-08-11T08:07:32;9.20;;;1.77;;
20411;SDS011;10365;52.578;8.138;2022-08-11T08:10:17;3.90;;;1.45;;
20411;SDS011;10365;52.578;8.138;2022-08-11T08:13:02;7.68;;;1.10;;
20411;SDS011;10365;52.578;8.138;2022-08-11T08:15:47;4.75;;;1.00;;
20411;SDS011;10365;52.578;8.138;2022-08-11T08:18:35;8.75;;;1.23;;
20411;SDS011;10365;52.578;8.138;2022-08-11T08:21:02;19.08;;;1.83;;
20411;SDS011;10365;52.578;8.138;2022-08-11T08:23:37;14.40;;;1.45;;
20411;SDS011;10365;52.578;8.138;2022-08-11T08:26:03;3.40;;;1.30;;
20411;SDS011;10365;52.578;8.138;2022-08-11T08:28:30;5.10;;;1.30;;
20411;SDS011;10365;52.578;8.138;2022-08-11T08:30:56;2.00;;;1.10;;
20411;SDS011;10365;52.578;8.138;2022-08-11T08:33:23;2.95;;;1.40;;
20411;SDS011;10365;52.578;8.138;2022-08-11T08:35:51;2.92;;;1.10;;
20411;SDS011;10365;52.578;8.138;2022-08-11T08:38:35;5.22;;;1.10;;
20411;SDS011;10365;52.578;8.138;2022-08-11T08:41:02;5.35;;;1.20;;
20411;SDS011;10365;52.578;8.138;2022-08-11T08:43:28;4.68;;;1.02;;
20411;SDS011;10365;52.578;8.138;2022-08-11T08:45:55;10.48;;;1.05;;
20411;SDS011;10365;52.578;8.138;2022-08-11T08:48:21;5.28;;;1.10;;
20411;SDS011;10365;52.578;8.138;2022-08-11T08:50:50;8.40;;;1.40;;
20411;SDS011;10365;52.578;8.138;2022-08-11T08:53:35;11.93;;;1.55;;
20411;SDS011;10365;52.578;8.138;2022-08-11T08:56:03;3.50;;;1.15;;
20411;SDS011;10365;52.578;8.138;2022-08-11T08:58:30;2.22;;;1.13;;
20411;SDS011;10365;52.578;8.138;2022-08-11T09:00:57;8.98;;;1.20;;
20411;SDS011;10365;52.578;8.138;2022-08-11T09:03:24;5.10;;;1.00;;
20411;SDS011;10365;52.578;8.138;2022-08-11T09:05:55;4.57;;;1.50;;
20411;SDS011;10365;52.578;8.138;2022-08-11T09:08:20;2.83;;;1.10;;
20411;SDS011;10365;52.578;8.138;2022-08-11T09:10:47;4.32;;;1.10;;
20411;SDS011;10365;52.578;8.138;2022-08-11T09:13:33;11.02;;;1.20;;
20411;SDS011;10365;52.578;8.138;2022-08-11T09:15:59;17.15;;;1.73;;
20411;SDS011;10365;52.578;8.138;2022-08-11T09:18:24;9.57;;;1.23;;
20411;SDS011;10365;52.578;8.138;2022-08-11T09:20:50;8.82;;;1.10;;
20411;SDS011;10365;52.578;8.138;2022-08-11T09:23:16;8.65;;;1.50;;
20411;SDS011;10365;52.578;8.138;2022-08-11T09:26:00;3.20;;;1.10;;
20411;SDS011;10365;52.578;8.138;2022-08-11T09:28:45;11.10;;;1.45;;
20411;SDS011;10365;52.578;8.138;2022-08-11T09:31:12;2.13;;;1.10;;
20411;SDS011;10365;52.578;8.138;2022-08-11T09:33:38;3.15;;;1.08;;
20411;SDS011;10365;52.578;8.138;2022-08-11T09:36:04;5.22;;;1.00;;
20411;SDS011;10365;52.578;8.138;2022-08-11T09:38:50;4.63;;;1.05;;
20411;SDS011;10365;52.578;8.138;2022-08-11T09:41:35;9.40;;;1.10;;
20411;SDS011;10365;52.578;8.138;2022-08-11T09:44:01;2.10;;;0.80;;
20411;SDS011;10365;52.578;8.138;2022-08-11T09:46:45;3.53;;;0.90;;
20411;SDS011;10365;52.578;8.138;2022-08-11T09:49:10;2.13;;;1.00;;
20411;SDS011;10365;52.578;8.138;2022-08-11T09:51:36;3.83;;;0.90;;
20411;SDS011;10365;52.578;8.138;2022-08-11T09:54:02;2.83;;;1.00;;
20411;SDS011;10365;52.578;8.138;2022-08-11T09:56:32;2.08;;;0.95;;
20411;SDS011;10365;52.578;8.138;2022-08-11T09:59:20;5.38;;;0.95;;
20411;SDS011;10365;52.578;8.138;2022-08-11T10:01:47;1.70;;;0.90;;
20411;SDS011;10365;52.578;8.138;2022-08-11T10:04:14;3.58;;;1.10;;
20411;SDS011;10365;52.578;8.138;2022-08-11T10:06:40;2.75;;;0.80;;
20411;SDS011;10365;52.578;8.138;2022-08-11T10:09:24;5.90;;;1.17;;
20411;SDS011;10365;52.578;8.138;2022-08-11T10:11:52;5.18;;;0.85;;
20411;SDS011;10365;52.578;8.138;2022-08-11T10:14:20;2.83;;;1.02;;
20411;SDS011;10365;52.578;8.138;2022-08-11T10:17:06;1.35;;;0.90;;
20411;SDS011;10365;52.578;8.138;2022-08-11T10:19:32;2.33;;;0.90;;
20411;SDS011;10365;52.578;8.138;2022-08-11T10:21:58;3.72;;;0.98;;
20411;SDS011;10365;52.578;8.138;2022-08-11T10:24:43;8.30;;;1.67;;
20411;SDS011;10365;52.578;8.138;2022-08-11T10:27:27;5.13;;;1.23;;
20411;SDS011;10365;52.578;8.138;2022-08-11T10:29:53;3.78;;;1.20;;
20411;SDS011;10365;52.578;8.138;2022-08-11T10:32:37;3.15;;;0.93;;
20411;SDS011;10365;52.578;8.138;2022-08-11T10:35:21;2.45;;;1.17;;
20411;SDS011;10365;52.578;8.138;2022-08-11T10:37:50;2.22;;;1.08;;
20411;SDS011;10365;52.578;8.138;2022-08-11T10:40:17;5.18;;;1.08;;
20411;SDS011;10365;52.578;8.138;2022-08-11T10:42:46;5.40;;;1.10;;
20411;SDS011;10365;52.578;8.138;2022-08-11T10:45:35;2.10;;;1.10;;
20411;SDS011;10365;52.578;8.138;2022-08-11T10:48:20;3.83;;;1.10;;
20411;SDS011;10365;52.578;8.138;2022-08-11T10:50:46;3.70;;;1.35;;
20411;SDS011;10365;52.578;8.138;2022-08-11T10:53:31;5.57;;;1.15;;
20411;SDS011;10365;52.578;8.138;2022-08-11T10:56:16;5.28;;;1.50;;
20411;SDS011;10365;52.578;8.138;2022-08-11T10:59:01;10.52;;;1.40;;
20411;SDS011;10365;52.578;8.138;2022-08-11T11:01:30;6.00;;;1.30;;
20411;SDS011;10365;52.578;8.138;2022-08-11T11:04:03;1.98;;;1.20;;
20411;SDS011;10365;52.578;8.138;2022-08-11T11:09:10;2.38;;;1.13;;
20411;SDS011;10365;52.578;8.138;2022-08-11T11:11:37;1.75;;;1.20;;
20411;SDS011;10365;52.578;8.138;2022-08-11T11:14:23;2.53;;;1.10;;
20411;SDS011;10365;52.578;8.138;2022-08-11T11:17:10;2.67;;;1.23;;
20411;SDS011;10365;52.578;8.138;2022-08-11T11:19:56;4.68;;;1.42;;
20411;SDS011;10365;52.578;8.138;2022-08-11T11:22:24;2.72;;;1.40;;
20411;SDS011;10365;52.578;8.138;2022-08-11T11:28:23;7.68;;;1.27;;
20411;SDS011;10365;52.578;8.138;2022-08-11T11:30:34;3.22;;;1.45;;
20411;SDS011;10365;52.578;8.138;2022-08-11T11:33:20;3.30;;;1.50;;
20411;SDS011;10365;52.578;8.138;2022-08-11T11:35:48;3.50;;;1.35;;
20411;SDS011;10365;52.578;8.138;2022-08-11T11:38:17;4.05;;;1.20;;
20411;SDS011;10365;52.578;8.138;2022-08-11T11:40:43;2.78;;;1.38;;
20411;SDS011;10365;52.578;8.138;2022-08-11T11:43:28;2.50;;;1.25;;
20411;SDS011;10365;52.578;8.138;2022-08-11T11:45:54;4.35;;;1.30;;
20411;SDS011;10365;52.578;8.138;2022-08-11T11:48:19;2.75;;;1.20;;
20411;SDS011;10365;52.578;8.138;2022-08-11T11:50:45;2.70;;;0.95;;
20411;SDS011;10365;52.578;8.138;2022-08-11T11:53:11;3.47;;;1.02;;
20411;SDS011;10365;52.578;8.138;2022-08-11T11:55:37;4.22;;;1.20;;
20411;SDS011;10365;52.578;8.138;2022-08-11T11:58:03;8.68;;;1.42;;
20411;SDS011;10365;52.578;8.138;2022-08-11T12:00:48;1.98;;;1.20;;
20411;SDS011;10365;52.578;8.138;2022-08-11T12:03:33;3.28;;;1.13;;
20411;SDS011;10365;52.578;8.138;2022-08-11T12:06:00;3.80;;;1.30;;
20411;SDS011;10365;52.578;8.138;2022-08-11T12:08:26;1.75;;;0.95;;
20411;SDS011;10365;52.578;8.138;2022-08-11T12:10:53;4.07;;;1.13;;
20411;SDS011;10365;52.578;8.138;2022-08-11T12:13:49;3.03;;;1.13;;
20411;SDS011;10365;52.578;8.138;2022-08-11T12:16:18;5.75;;;1.27;;
20411;SDS011;10365;52.578;8.138;2022-08-11T12:18:48;2.38;;;1.27;;
20411;SDS011;10365;52.578;8.138;2022-08-11T12:21:15;3.20;;;1.33;;
20411;SDS011;10365;52.578;8.138;2022-08-11T12:23:41;3.80;;;1.20;;
20411;SDS011;10365;52.578;8.138;2022-08-11T12:26:25;1.17;;;0.90;;
20411;SDS011;10365;52.578;8.138;2022-08-11T12:29:23;4.68;;;1.60;;
20411;SDS011;10365;52.578;8.138;2022-08-11T12:31:55;4.53;;;1.10;;
20411;SDS011;10365;52.578;8.138;2022-08-11T12:34:24;2.00;;;1.20;;
20411;SDS011;10365;52.578;8.138;2022-08-11T12:36:54;1.98;;;1.10;;
20411;SDS011;10365;52.578;8.138;2022-08-11T12:39:21;3.65;;;0.95;;
20411;SDS011;10365;52.578;8.138;2022-08-11T12:42:12;2.40;;;1.00;;
20411;SDS011;10365;52.578;8.138;2022-08-11T12:44:57;2.05;;;1.17;;
20411;SDS011;10365;52.578;8.138;2022-08-11T12:47:46;1.10;;;0.70;;
20411;SDS011;10365;52.578;8.138;2022-08-11T12:50:32;4.63;;;1.52;;
20411;SDS011;10365;52.578;8.138;2022-08-11T12:53:17;1.50;;;0.93;;
20411;SDS011;10365;52.578;8.138;2022-08-11T12:55:47;2.80;;;1.30;;
20411;SDS011;10365;52.578;8.138;2022-08-11T12:58:31;2.53;;;1.10;;
20411;SDS011;10365;52.578;8.138;2022-08-11T13:00:57;4.28;;;1.05;;
20411;SDS011;10365;52.578;8.138;2022-08-11T13:03:41;1.40;;;0.90;;
20411;SDS011;10365;52.578;8.138;2022-08-11T13:06:25;6.30;;;1.15;;
20411;SDS011;10365;52.578;8.138;2022-08-11T13:08:51;4.93;;;1.00;;
20411;SDS011;10365;52.578;8.138;2022-08-11T13:11:17;2.45;;;1.00;;
20411;SDS011;10365;52.578;8.138;2022-08-11T13:14:01;4.82;;;1.20;;
20411;SDS011;10365;52.578;8.138;2022-08-11T13:16:31;3.00;;;1.02;;
20411;SDS011;10365;52.578;8.138;2022-08-11T13:19:17;4.68;;;1.00;;
20411;SDS011;10365;52.578;8.138;2022-08-11T13:21:43;5.07;;;1.20;;
20411;SDS011;10365;52.578;8.138;2022-08-11T13:24:09;2.50;;;0.90;;
20411;SDS011;10365;52.578;8.138;2022-08-11T13:26:36;4.68;;;1.10;;
20411;SDS011;10365;52.578;8.138;2022-08-11T13:29:02;2.17;;;1.10;;
20411;SDS011;10365;52.578;8.138;2022-08-11T13:31:28;2.55;;;0.90;;
20411;SDS011;10365;52.578;8.138;2022-08-11T13:33:54;4.32;;;1.40;;
20411;SDS011;10365;52.578;8.138;2022-08-11T13:36:21;1.75;;;1.10;;
20411;SDS011;10365;52.578;8.138;2022-08-11T13:38:48;5.30;;;1.10;;
20411;SDS011;10365;52.578;8.138;2022-08-11T13:41:14;4.95;;;1.00;;
20411;SDS011;10365;52.578;8.138;2022-08-11T13:43:58;2.13;;;0.90;;
20411;SDS011;10365;52.578;8.138;2022-08-11T13:46:25;5.53;;;0.90;;
20411;SDS011;10365;52.578;8.138;2022-08-11T13:48:53;4.03;;;1.00;;
20411;SDS011;10365;52.578;8.138;2022-08-11T13:51:19;5.57;;;1.10;;
20411;SDS011;10365;52.578;8.138;2022-08-11T13:56:26;3.42;;;0.90;;
20411;SDS011;10365;52.578;8.138;2022-08-11T13:58:53;4.65;;;1.20;;
20411;SDS011;10365;52.578;8.138;2022-08-11T14:01:19;4.70;;;1.20;;
20411;SDS011;10365;52.578;8.138;2022-08-11T14:03:45;2.35;;;1.38;;
20411;SDS011;10365;52.578;8.138;2022-08-11T14:06:11;3.70;;;1.60;;
20411;SDS011;10365;52.578;8.138;2022-08-11T14:08:37;2.75;;;1.08;;
20411;SDS011;10365;52.578;8.138;2022-08-11T14:11:03;2.33;;;0.90;;
20411;SDS011;10365;52.578;8.138;2022-08-11T14:13:49;3.38;;;1.35;;
20411;SDS011;10365;52.578;8.138;2022-08-11T14:16:17;3.88;;;1.27;;
20411;SDS011;10365;52.578;8.138;2022-08-11T14:18:46;8.48;;;1.30;;
20411;SDS011;10365;52.578;8.138;2022-08-11T14:21:15;7.13;;;0.82;;
20411;SDS011;10365;52.578;8.138;2022-08-11T14:24:01;2.50;;;1.00;;
20411;SDS011;10365;52.578;8.138;2022-08-11T14:26:27;5.38;;;0.90;;
20411;SDS011;10365;52.578;8.138;2022-08-11T14:31:21;1.90;;;1.00;;
20411;SDS011;10365;52.578;8.138;2022-08-11T14:33:47;5.95;;;1.00;;
20411;SDS011;10365;52.578;8.138;2022-08-11T14:36:13;1.10;;;0.70;;
20411;SDS011;10365;52.578;8.138;2022-08-11T14:38:39;1.67;;;0.90;;
20411;SDS011;10365;52.578;8.138;2022-08-11T14:41:05;1.45;;;1.02;;
20411;SDS011;10365;52.578;8.138;2022-08-11T14:43:51;6.85;;;1.10;;
20411;SDS011;10365;52.578;8.138;2022-08-11T14:46:36;2.90;;;1.00;;
20411;SDS011;10365;52.578;8.138;2022-08-11T14:49:22;6.50;;;0.90;;
20411;SDS011;10365;52.578;8.138;2022-08-11T14:51:47;3.08;;;0.90;;
20411;SDS011;10365;52.578;8.138;2022-08-11T14:54:14;7.30;;;0.90;;
20411;SDS011;10365;52.578;8.138;2022-08-11T14:56:58;9.40;;;1.00;;
20411;SDS011;10365;52.578;8.138;2022-08-11T14:59:25;3.00;;;1.00;;
20411;SDS011;10365;52.578;8.138;2022-08-11T15:01:50;2.20;;;1.05;;
20411;SDS011;10365;52.578;8.138;2022-08-11T15:04:35;2.95;;;1.00;;
20411;SDS011;10365;52.578;8.138;2022-08-11T15:07:02;2.17;;;0.90;;
20411;SDS011;10365;52.578;8.138;2022-08-11T15:09:28;2.22;;;1.02;;
20411;SDS011;10365;52.578;8.138;2022-08-11T15:11:53;3.45;;;1.00;;
20411;SDS011;10365;52.578;8.138;2022-08-11T15:14:40;1.55;;;0.70;;
20411;SDS011;10365;52.578;8.138;2022-08-11T15:17:25;11.00;;;1.10;;
20411;SDS011;10365;52.578;8.138;2022-08-11T15:19:52;6.03;;;0.90;;
20411;SDS011;10365;52.578;8.138;2022-08-11T15:22:37;1.52;;;0.98;;
20411;SDS011;10365;52.578;8.138;2022-08-11T15:25:21;1.90;;;1.23;;
20411;SDS011;10365;52.578;8.138;2022-08-11T15:27:47;1.92;;;1.10;;
20411;SDS011;10365;52.578;8.138;2022-08-11T15:30:33;6.93;;;1.17;;
20411;SDS011;10365;52.578;8.138;2022-08-11T15:33:18;2.67;;;1.27;;
20411;SDS011;10365;52.578;8.138;2022-08-11T15:36:04;5.38;;;1.20;;
20411;SDS011;10365;52.578;8.138;2022-08-11T15:39:02;3.13;;;1.17;;
20411;SDS011;10365;52.578;8.138;2022-08-11T15:41:30;5.97;;;1.20;;
20411;SDS011;10365;52.578;8.138;2022-08-11T15:44:18;2.65;;;1.30;;
20411;SDS011;10365;52.578;8.138;2022-08-11T15:47:02;3.08;;;1.20;;
20411;SDS011;10365;52.578;8.138;2022-08-11T15:49:46;6.60;;;1.17;;
20411;SDS011;10365;52.578;8.138;2022-08-11T15:52:17;9.20;;;1.42;;
20411;SDS011;10365;52.578;8.138;2022-08-11T15:54:43;2.33;;;1.48;;
20411;SDS011;10365;52.578;8.138;2022-08-11T15:57:12;6.00;;;1.20;;
20411;SDS011;10365;52.578;8.138;2022-08-11T16:00:00;7.30;;;1.23;;
20411;SDS011;10365;52.578;8.138;2022-08-11T16:02:46;2.47;;;1.30;;
20411;SDS011;10365;52.578;8.138;2022-08-11T16:05:22;2.47;;;1.13;;
20411;SDS011;10365;52.578;8.138;2022-08-11T16:07:49;4.65;;;1.10;;
20411;SDS011;10365;52.578;8.138;2022-08-11T16:10:16;3.13;;;1.35;;
20411;SDS011;10365;52.578;8.138;2022-08-11T16:15:31;4.43;;;1.10;;
20411;SDS011;10365;52.578;8.138;2022-08-11T16:18:17;1.60;;;1.10;;
20411;SDS011;10365;52.578;8.138;2022-08-11T16:20:44;2.88;;;1.48;;
20411;SDS011;10365;52.578;8.138;2022-08-11T16:23:10;7.50;;;1.50;;
20411;SDS011;10365;52.578;8.138;2022-08-11T16:25:38;7.28;;;1.17;;
20411;SDS011;10365;52.578;8.138;2022-08-11T16:28:05;5.85;;;1.55;;
20411;SDS011;10365;52.578;8.138;2022-08-11T16:30:34;2.38;;;1.38;;
20411;SDS011;10365;52.578;8.138;2022-08-11T16:33:01;2.25;;;1.10;;
20411;SDS011;10365;52.578;8.138;2022-08-11T16:35:30;2.58;;;1.13;;
20411;SDS011;10365;52.578;8.138;2022-08-11T16:38:16;2.67;;;1.42;;
20411;SDS011;10365;52.578;8.138;2022-08-11T16:41:00;2.38;;;1.40;;
20411;SDS011;10365;52.578;8.138;2022-08-11T16:43:28;2.63;;;1.30;;
20411;SDS011;10365;52.578;8.138;2022-08-11T16:46:14;2.80;;;1.33;;
20411;SDS011;10365;52.578;8.138;2022-08-11T16:49:00;3.42;;;1.35;;
20411;SDS011;10365;52.578;8.138;2022-08-11T16:51:27;1.77;;;1.15;;
20411;SDS011;10365;52.578;8.138;2022-08-11T16:53:53;7.88;;;1.25;;
20411;SDS011;10365;52.578;8.138;2022-08-11T16:56:20;7.78;;;1.33;;
20411;SDS011;10365;52.578;8.138;2022-08-11T16:58:53;3.85;;;1.20;;
20411;SDS011;10365;52.578;8.138;2022-08-11T17:01:37;4.07;;;1.33;;
20411;SDS011;10365;52.578;8.138;2022-08-11T17:04:07;5.07;;;1.13;;
20411;SDS011;10365;52.578;8.138;2022-08-11T17:06:52;1.92;;;1.10;;
20411;SDS011;10365;52.578;8.138;2022-08-11T17:09:36;7.95;;;1.45;;
20411;SDS011;10365;52.578;8.138;2022-08-11T17:12:23;2.03;;;1.05;;
20411;SDS011;10365;52.578;8.138;2022-08-11T17:15:08;2.97;;;1.63;;
20411;SDS011;10365;52.578;8.138;2022-08-11T17:17:55;5.20;;;1.30;;
20411;SDS011;10365;52.578;8.138;2022-08-11T17:20:22;6.70;;;1.40;;
20411;SDS011;10365;52.578;8.138;2022-08-11T17:22:48;4.20;;;1.20;;
20411;SDS011;10365;52.578;8.138;2022-08-11T17:25:34;5.18;;;1.23;;
20411;SDS011;10365;52.578;8.138;2022-08-11T17:27:59;3.35;;;1.45;;
20411;SDS011;10365;52.578;8.138;2022-08-11T17:30:27;14.15;;;1.67;;
20411;SDS011;10365;52.578;8.138;2022-08-11T17:33:13;3.88;;;1.25;;
20411;SDS011;10365;52.578;8.138;2022-08-11T17:35:59;2.45;;;1.20;;
20411;SDS011;10365;52.578;8.138;2022-08-11T17:38:25;5.65;;;1.50;;
20411;SDS011;10365;52.578;8.138;2022-08-11T17:40:56;5.00;;;1.40;;
20411;SDS011;10365;52.578;8.138;2022-08-11T17:43:40;2.35;;;1.58;;
20411;SDS011;10365;52.578;8.138;2022-08-11T17:46:25;4.97;;;1.25;;
20411;SDS011;10365;52.578;8.138;2022-08-11T17:49:10;4.72;;;1.40;;
20411;SDS011;10365;52.578;8.138;2022-08-11T17:51:36;2.65;;;1.40;;
20411;SDS011;10365;52.578;8.138;2022-08-11T17:54:20;5.97;;;1.67;;
20411;SDS011;10365;52.578;8.138;2022-08-11T17:57:05;6.15;;;2.03;;
20411;SDS011;10365;52.578;8.138;2022-08-11T17:59:51;4.75;;;1.70;;
20411;SDS011;10365;52.578;8.138;2022-08-11T18:02:39;3.80;;;1.52;;
20411;SDS011;10365;52.578;8.138;2022-08-11T18:05:32;2.65;;;1.50;;
20411;SDS011;10365;52.578;8.138;2022-08-11T18:07:59;4.38;;;1.30;;
20411;SDS011;10365;52.578;8.138;2022-08-11T18:10:48;4.63;;;1.70;;
20411;SDS011;10365;52.578;8.138;2022-08-11T18:13:34;4.72;;;2.22;;
20411;SDS011;10365;52.578;8.138;2022-08-11T18:16:19;19.30;;;2.42;;
20411;SDS011;10365;52.578;8.138;2022-08-11T18:19:03;8.15;;;2.00;;
20411;SDS011;10365;52.578;8.138;2022-08-11T18:21:48;10.35;;;2.08;;
20411;SDS011;10365;52.578;8.138;2022-08-11T18:24:36;4.30;;;1.88;;
20411;SDS011;10365;52.578;8.138;2022-08-11T18:27:21;4.78;;;1.88;;
20411;SDS011;10365;52.578;8.138;2022-08-11T18:30:05;3.50;;;2.10;;
20411;SDS011;10365;52.578;8.138;2022-08-11T18:32:50;2.60;;;1.98;;
20411;SDS011;10365;52.578;8.138;2022-08-11T18:35:36;3.50;;;2.00;;
20411;SDS011;10365;52.578;8.138;2022-08-11T18:38:21;7.20;;;1.90;;
20411;SDS011;10365;52.578;8.138;2022-08-11T18:41:06;7.43;;;2.13;;
20411;SDS011;10365;52.578;8.138;2022-08-11T18:43:51;4.40;;;2.25;;
20411;SDS011;10365;52.578;8.138;2022-08-11T18:46:37;5.40;;;2.42;;
20411;SDS011;10365;52.578;8.138;2022-08-11T18:49:26;6.82;;;2.10;;
20411;SDS011;10365;52.578;8.138;2022-08-11T18:52:12;3.85;;;2.13;;
20411;SDS011;10365;52.578;8.138;2022-08-11T18:54:58;3.92;;;2.22;;
20411;SDS011;10365;52.578;8.138;2022-08-11T18:57:44;4.20;;;2.30;;
20411;SDS011;10365;52.578;8.138;2022-08-11T19:00:29;3.67;;;1.88;;